createdAt,value
2018-06-05T00:00:30.274Z,0.00
2018-06-05T00:01:30.273Z,0.00
2018-06-05T00:02:30.268Z,0.00
2018-06-05T00:03:30.267Z,0.00
2018-06-05T00:04:30.270Z,0.00
2018-06-05T00:05:30.271Z,0.00
2018-06-05T00:06:30.269Z,0.00
2018-06-05T00:07:30.267Z,0.00
2018-06-05T00:08:30.260Z,0.00
2018-06-05T00:09:30.260Z,0.00
2018-06-05T00:10:30.259Z,0.00
2018-06-05T00:11:30.257Z,0.00
2018-06-05T00:12:30.261Z,0.00
2018-06-05T00:13:30.259Z,0.00
2018-06-05T00:14:30.258Z,0.00
2018-06-05T00:15:30.257Z,0.00
2018-06-05T00:16:30.250Z,0.00
2018-06-05T00:17:30.249Z,0.00
2018-06-05T00:18:30.253Z,0.00
2018-06-05T00:19:30.252Z,0.00
2018-06-05T00:20:30.246Z,0.00
2018-06-05T00:21:30.244Z,0.00
2018-06-05T00:22:30.244Z,0.00
2018-06-05T00:23:30.248Z,0.00
2018-06-05T00:24:30.245Z,0.00
2018-06-05T00:25:30.246Z,0.00
2018-06-05T00:26:30.247Z,0.00
2018-06-05T00:27:30.246Z,0.00
2018-06-05T00:28:30.236Z,0.00
2018-06-05T00:29:30.235Z,0.00
2018-06-05T00:30:30.234Z,0.00
2018-06-05T00:31:30.233Z,0.00
2018-06-05T00:32:30.237Z,0.00
2018-06-05T00:33:30.235Z,0.00
2018-06-05T00:34:30.229Z,0.00
2018-06-05T00:35:30.228Z,0.00
2018-06-05T00:36:30.232Z,0.00
2018-06-05T00:37:30.233Z,0.00
2018-06-05T00:38:30.229Z,0.00
2018-06-05T00:39:30.228Z,0.00
2018-06-05T00:40:30.222Z,0.00
2018-06-05T00:41:30.221Z,0.00
2018-06-05T00:42:30.220Z,0.00
2018-06-05T00:43:30.219Z,0.00
2018-06-05T00:44:30.221Z,0.00
2018-06-05T00:45:30.220Z,0.00
2018-06-05T00:46:30.221Z,0.00
2018-06-05T00:47:30.219Z,0.00
2018-06-05T00:48:30.213Z,0.00
2018-06-05T00:49:30.212Z,0.00
2018-06-05T00:50:30.216Z,0.00
2018-06-05T00:51:30.216Z,0.00
2018-06-05T00:52:30.210Z,0.00
2018-06-05T00:53:30.207Z,0.00
2018-06-05T00:54:30.206Z,0.00
2018-06-05T00:55:30.205Z,0.00
2018-06-05T00:56:30.207Z,0.00
2018-06-05T00:57:30.213Z,0.00
2018-06-05T00:58:30.209Z,0.00
2018-06-05T00:59:30.205Z,0.00
2018-06-05T01:00:30.201Z,0.00
2018-06-05T01:01:30.198Z,0.00
2018-06-05T01:02:30.200Z,0.00
2018-06-05T01:03:30.196Z,0.00
2018-06-05T01:04:30.199Z,0.00
2018-06-05T01:05:30.198Z,0.00
2018-06-05T01:06:30.192Z,0.00
2018-06-05T01:07:30.192Z,0.00
2018-06-05T01:08:30.195Z,0.00
2018-06-05T01:09:30.193Z,0.00
2018-06-05T01:10:30.192Z,0.00
2018-06-05T01:11:30.192Z,0.00
2018-06-05T01:12:30.185Z,0.00
2018-06-05T01:13:30.184Z,0.00
2018-06-05T01:14:30.184Z,0.00
2018-06-05T01:15:30.183Z,0.00
2018-06-05T01:16:30.186Z,0.00
2018-06-05T01:17:30.185Z,0.00
2018-06-05T01:18:30.185Z,0.00
2018-06-05T01:19:30.185Z,0.00
2018-06-05T01:20:30.177Z,0.00
2018-06-05T01:21:30.176Z,0.00
2018-06-05T01:22:30.180Z,0.00
2018-06-05T01:23:30.182Z,0.00
2018-06-05T01:24:30.172Z,0.00
2018-06-05T01:25:30.173Z,0.00
2018-06-05T01:26:30.172Z,0.00
2018-06-05T01:27:30.170Z,0.00
2018-06-05T01:28:30.172Z,0.00
2018-06-05T01:29:30.172Z,0.00
2018-06-05T01:30:30.172Z,0.00
2018-06-05T01:31:30.170Z,0.00
2018-06-05T01:32:30.165Z,0.00
2018-06-05T01:33:30.168Z,0.00
2018-06-05T01:34:30.163Z,0.00
2018-06-05T01:35:30.162Z,0.00
2018-06-05T01:36:30.165Z,0.00
2018-06-05T01:37:30.164Z,0.00
2018-06-05T01:38:30.212Z,0.00
2018-06-05T01:39:30.159Z,0.00
2018-06-05T01:40:30.165Z,0.00
2018-06-05T01:41:30.160Z,0.00
2018-06-05T01:42:30.159Z,0.00
2018-06-05T01:43:30.158Z,0.00
2018-06-05T01:44:30.153Z,0.00
2018-06-05T01:45:30.151Z,0.00
2018-06-05T01:46:30.150Z,0.00
2018-06-05T01:47:30.149Z,0.00
2018-06-05T01:48:30.152Z,0.00
2018-06-05T01:49:30.151Z,0.00
2018-06-05T01:50:30.155Z,0.00
2018-06-05T01:51:30.151Z,0.00
2018-06-05T01:52:30.145Z,0.00
2018-06-05T01:53:30.143Z,0.00
2018-06-05T01:54:30.148Z,0.00
2018-06-05T01:55:30.155Z,0.00
2018-06-05T01:56:30.140Z,0.00
2018-06-05T01:57:30.145Z,0.00
2018-06-05T01:58:30.138Z,0.00
2018-06-05T01:59:30.137Z,0.00
2018-06-05T02:00:30.139Z,0.00
2018-06-05T02:01:30.139Z,0.00
2018-06-05T02:02:30.141Z,0.00
2018-06-05T02:03:30.137Z,0.00
2018-06-05T02:04:30.131Z,0.00
2018-06-05T02:05:30.130Z,0.00
2018-06-05T02:06:30.129Z,0.00
2018-06-05T02:07:30.130Z,0.00
2018-06-05T02:08:30.133Z,0.00
2018-06-05T02:09:30.132Z,0.00
2018-06-05T02:10:30.125Z,0.00
2018-06-05T02:11:30.125Z,0.00
2018-06-05T02:12:30.129Z,0.00
2018-06-05T02:13:30.129Z,0.00
2018-06-05T02:14:30.126Z,0.00
2018-06-05T02:15:30.125Z,0.00
2018-06-05T02:16:30.118Z,0.00
2018-06-05T02:17:30.120Z,0.00
2018-06-05T02:18:30.118Z,0.00
2018-06-05T02:19:30.117Z,0.00
2018-06-05T02:20:30.121Z,0.00
2018-06-05T02:21:30.119Z,0.00
2018-06-05T02:22:30.118Z,0.00
2018-06-05T02:23:30.117Z,0.00
2018-06-05T02:24:30.115Z,0.00
2018-06-05T02:25:30.110Z,0.00
2018-06-05T02:26:30.115Z,0.00
2018-06-05T02:27:30.115Z,0.00
2018-06-05T02:28:30.111Z,0.00
2018-06-05T02:29:30.106Z,0.00
2018-06-05T02:30:30.104Z,0.00
2018-06-05T02:31:30.103Z,0.00
2018-06-05T02:32:30.108Z,0.00
2018-06-05T02:33:30.105Z,0.00
2018-06-05T02:34:30.108Z,0.00
2018-06-05T02:35:30.112Z,0.00
2018-06-05T02:36:30.098Z,0.00
2018-06-05T02:37:30.097Z,0.00
2018-06-05T02:38:30.097Z,0.00
2018-06-05T02:39:30.096Z,0.00
2018-06-05T02:40:30.103Z,0.00
2018-06-05T02:41:30.097Z,0.00
2018-06-05T02:42:30.093Z,0.00
2018-06-05T02:43:30.094Z,0.00
2018-06-05T02:44:30.094Z,0.00
2018-06-05T02:45:30.093Z,0.00
2018-06-05T02:46:30.094Z,0.00
2018-06-05T02:47:30.095Z,0.00
2018-06-05T02:48:30.085Z,0.00
2018-06-05T02:49:30.085Z,0.00
2018-06-05T02:50:30.085Z,0.00
2018-06-05T02:51:30.084Z,0.00
2018-06-05T02:52:30.087Z,0.00
2018-06-05T02:53:30.086Z,0.00
2018-06-05T02:54:30.084Z,0.00
2018-06-05T02:55:30.082Z,0.00
2018-06-05T02:56:30.077Z,0.00
2018-06-05T02:57:30.076Z,0.00
2018-06-05T02:58:30.081Z,0.00
2018-06-05T02:59:30.079Z,0.00
2018-06-05T03:00:30.073Z,0.00
2018-06-05T03:01:30.072Z,0.00
2018-06-05T03:02:30.072Z,0.00
2018-06-05T03:03:30.070Z,0.00
2018-06-05T03:04:30.074Z,0.00
2018-06-05T03:05:30.076Z,0.00
2018-06-05T03:06:30.073Z,0.00
2018-06-05T03:07:30.070Z,0.00
2018-06-05T03:08:30.064Z,0.00
2018-06-05T03:09:30.064Z,0.00
2018-06-05T03:10:30.062Z,0.00
2018-06-05T03:11:30.061Z,0.00
2018-06-05T03:12:30.064Z,0.00
2018-06-05T03:13:30.063Z,0.00
2018-06-05T03:14:30.058Z,0.00
2018-06-05T03:15:30.057Z,0.00
2018-06-05T03:16:30.061Z,0.00
2018-06-05T03:17:30.062Z,0.00
2018-06-05T03:18:30.059Z,0.00
2018-06-05T03:19:30.059Z,0.00
2018-06-05T03:20:30.051Z,0.00
2018-06-05T03:21:30.053Z,0.00
2018-06-05T03:22:30.050Z,0.00
2018-06-05T03:23:30.049Z,5.63
2018-06-05T03:24:30.051Z,5.63
2018-06-05T03:25:30.051Z,5.63
2018-06-05T03:26:30.053Z,5.63
2018-06-05T03:27:30.048Z,5.63
2018-06-05T03:28:30.043Z,5.63
2018-06-05T03:29:30.042Z,5.63
2018-06-05T03:30:30.046Z,5.63
2018-06-05T03:31:30.045Z,5.63
2018-06-05T03:32:30.038Z,11.25
2018-06-05T03:33:30.037Z,11.25
2018-06-05T03:34:30.037Z,11.25
2018-06-05T03:35:30.036Z,11.25
2018-06-05T03:36:30.040Z,16.88
2018-06-05T03:37:30.039Z,16.88
2018-06-05T03:38:30.036Z,16.88
2018-06-05T03:39:30.036Z,16.88
2018-06-05T03:40:30.030Z,16.88
2018-06-05T03:41:30.028Z,16.88
2018-06-05T03:42:30.029Z,16.88
2018-06-05T03:43:30.027Z,16.88
2018-06-05T03:44:30.030Z,16.88
2018-06-05T03:45:30.030Z,16.88
2018-06-05T03:46:30.026Z,22.50
2018-06-05T03:47:30.024Z,22.50
2018-06-05T03:48:30.027Z,22.50
2018-06-05T03:49:30.026Z,16.88
2018-06-05T03:50:30.024Z,22.50
2018-06-05T03:51:30.023Z,22.50
2018-06-05T03:52:30.017Z,28.13
2018-06-05T03:53:30.016Z,28.13
2018-06-05T03:54:30.015Z,28.13
2018-06-05T03:55:30.017Z,28.13
2018-06-05T03:56:30.033Z,28.13
2018-06-05T03:57:30.017Z,28.13
2018-06-05T03:58:30.016Z,28.13
2018-06-05T03:59:30.015Z,33.75
2018-06-05T04:00:30.008Z,33.75
2018-06-05T04:01:30.007Z,33.75
2018-06-05T04:02:30.012Z,33.75
2018-06-05T04:03:30.012Z,33.75
2018-06-05T04:04:30.005Z,33.75
2018-06-05T04:05:30.003Z,39.38
2018-06-05T04:06:30.002Z,39.38
2018-06-05T04:07:30.001Z,39.38
2018-06-05T04:08:30.003Z,39.38
2018-06-05T04:09:30.003Z,45.00
2018-06-05T04:10:30.002Z,45.00
2018-06-05T04:11:30.002Z,50.63
2018-06-05T04:12:29.996Z,50.63
2018-06-05T04:13:29.994Z,50.63
2018-06-05T04:14:29.995Z,50.63
2018-06-05T04:15:29.995Z,50.63
2018-06-05T04:16:30.000Z,50.63
2018-06-05T04:17:29.995Z,50.63
2018-06-05T04:18:29.990Z,56.25
2018-06-05T04:19:29.989Z,56.25
2018-06-05T04:20:29.993Z,56.25
2018-06-05T04:21:29.992Z,61.88
2018-06-05T04:22:29.990Z,67.50
2018-06-05T04:23:29.989Z,73.13
2018-06-05T04:24:29.983Z,78.75
2018-06-05T04:25:29.982Z,73.13
2018-06-05T04:26:29.982Z,73.13
2018-06-05T04:27:30.010Z,73.13
2018-06-05T04:28:29.990Z,73.13
2018-06-05T04:29:29.982Z,67.50
2018-06-05T04:30:29.983Z,67.50
2018-06-05T04:31:29.982Z,73.13
2018-06-05T04:32:29.977Z,73.13
2018-06-05T04:33:29.977Z,78.75
2018-06-05T04:34:29.980Z,84.38
2018-06-05T04:35:29.979Z,84.38
2018-06-05T04:36:29.972Z,78.75
2018-06-05T04:37:29.975Z,78.75
2018-06-05T04:38:29.971Z,78.75
2018-06-05T04:39:29.973Z,84.38
2018-06-05T04:40:29.973Z,84.38
2018-06-05T04:41:29.972Z,90.00
2018-06-05T04:42:29.973Z,90.00
2018-06-05T04:43:29.972Z,95.63
2018-06-05T04:44:29.965Z,95.63
2018-06-05T04:45:29.965Z,101.25
2018-06-05T04:46:29.964Z,106.88
2018-06-05T04:47:29.964Z,106.88
2018-06-05T04:48:29.966Z,106.88
2018-06-05T04:49:29.966Z,106.88
2018-06-05T04:50:29.961Z,106.88
2018-06-05T04:51:29.960Z,106.88
2018-06-05T04:52:29.965Z,106.88
2018-06-05T04:53:29.967Z,106.88
2018-06-05T04:54:29.963Z,112.50
2018-06-05T04:55:29.963Z,118.13
2018-06-05T04:56:29.957Z,123.75
2018-06-05T04:57:29.957Z,123.75
2018-06-05T04:58:29.958Z,118.13
2018-06-05T04:59:29.955Z,123.75
2018-06-05T05:00:29.959Z,135.00
2018-06-05T05:01:29.959Z,146.25
2018-06-05T05:02:29.957Z,135.00
2018-06-05T05:03:29.957Z,129.38
2018-06-05T05:04:29.950Z,129.38
2018-06-05T05:05:29.950Z,123.75
2018-06-05T05:06:29.954Z,118.13
2018-06-05T05:07:29.953Z,129.38
2018-06-05T05:08:29.948Z,135.00
2018-06-05T05:09:29.948Z,140.63
2018-06-05T05:10:29.948Z,146.25
2018-06-05T05:11:29.949Z,135.00
2018-06-05T05:12:29.952Z,140.63
2018-06-05T05:13:29.950Z,140.63
2018-06-05T05:14:29.960Z,140.63
2018-06-05T05:15:29.951Z,140.63
2018-06-05T05:16:29.946Z,140.63
2018-06-05T05:17:29.944Z,146.25
2018-06-05T05:18:29.943Z,146.25
2018-06-05T05:19:29.942Z,135.00
2018-06-05T05:20:29.946Z,135.00
2018-06-05T05:21:29.945Z,129.38
2018-06-05T05:22:29.941Z,118.13
2018-06-05T05:23:29.940Z,118.13
2018-06-05T05:24:29.945Z,123.75
2018-06-05T05:25:29.944Z,129.38
2018-06-05T05:26:29.945Z,129.38
2018-06-05T05:27:29.944Z,129.38
2018-06-05T05:28:29.938Z,135.00
2018-06-05T05:29:29.937Z,140.63
2018-06-05T05:30:29.937Z,146.25
2018-06-05T05:31:29.938Z,146.25
2018-06-05T05:32:29.941Z,135.00
2018-06-05T05:33:29.940Z,140.63
2018-06-05T05:34:29.939Z,151.88
2018-06-05T05:35:29.939Z,157.50
2018-06-05T05:36:29.934Z,163.13
2018-06-05T05:37:29.933Z,168.75
2018-06-05T05:38:29.939Z,174.38
2018-06-05T05:39:29.937Z,180.00
2018-06-05T05:40:29.933Z,180.00
2018-06-05T05:41:29.933Z,185.63
2018-06-05T05:42:29.932Z,185.63
2018-06-05T05:43:29.932Z,185.63
2018-06-05T05:44:29.939Z,180.00
2018-06-05T05:45:29.937Z,174.38
2018-06-05T05:46:29.931Z,168.75
2018-06-05T05:47:29.931Z,163.13
2018-06-05T05:48:29.934Z,163.13
2018-06-05T05:49:29.934Z,174.38
2018-06-05T05:50:29.935Z,180.00
2018-06-05T05:51:29.935Z,185.63
2018-06-05T05:52:29.933Z,185.63
2018-06-05T05:53:29.931Z,191.25
2018-06-05T05:54:29.934Z,196.88
2018-06-05T05:55:29.936Z,191.25
2018-06-05T05:56:29.929Z,185.63
2018-06-05T05:57:29.930Z,191.25
2018-06-05T05:58:29.929Z,196.88
2018-06-05T05:59:29.929Z,196.88
2018-06-05T06:00:29.932Z,208.13
2018-06-05T06:01:29.933Z,230.63
2018-06-05T06:02:29.934Z,225.00
2018-06-05T06:03:29.934Z,213.75
2018-06-05T06:04:29.928Z,202.50
2018-06-05T06:05:29.928Z,196.88
2018-06-05T06:06:29.929Z,196.88
2018-06-05T06:07:29.929Z,185.63
2018-06-05T06:08:29.934Z,185.63
2018-06-05T06:09:29.934Z,191.25
2018-06-05T06:10:29.929Z,202.50
2018-06-05T06:11:29.929Z,202.50
2018-06-05T06:12:29.934Z,213.75
2018-06-05T06:13:29.934Z,219.38
2018-06-05T06:14:29.933Z,225.00
2018-06-05T06:15:29.933Z,219.38
2018-06-05T06:16:29.928Z,213.75
2018-06-05T06:17:29.929Z,213.75
2018-06-05T06:18:29.930Z,213.75
2018-06-05T06:19:29.929Z,208.13
2018-06-05T06:20:29.933Z,196.88
2018-06-05T06:21:29.933Z,191.25
2018-06-05T06:22:29.936Z,196.88
2018-06-05T06:23:29.934Z,202.50
2018-06-05T06:24:29.928Z,213.75
2018-06-05T06:25:29.929Z,219.38
2018-06-05T06:26:29.936Z,225.00
2018-06-05T06:27:29.936Z,230.63
2018-06-05T06:28:29.929Z,241.88
2018-06-05T06:29:29.930Z,247.50
2018-06-05T06:30:29.930Z,253.13
2018-06-05T06:31:29.930Z,258.75
2018-06-05T06:32:29.934Z,253.13
2018-06-05T06:33:29.934Z,253.13
2018-06-05T06:34:29.936Z,253.13
2018-06-05T06:35:29.935Z,253.13
2018-06-05T06:36:29.930Z,258.75
2018-06-05T06:37:29.931Z,253.13
2018-06-05T06:38:29.935Z,230.63
2018-06-05T06:39:29.932Z,230.63
2018-06-05T06:40:29.938Z,241.88
2018-06-05T06:41:29.937Z,241.88
2018-06-05T06:42:29.932Z,241.88
2018-06-05T06:43:29.932Z,236.25
2018-06-05T06:44:29.937Z,230.63
2018-06-05T06:45:29.937Z,213.75
2018-06-05T06:46:29.936Z,208.13
2018-06-05T06:47:29.937Z,196.88
2018-06-05T06:48:29.938Z,196.88
2018-06-05T06:49:29.934Z,202.50
2018-06-05T06:50:29.932Z,202.50
2018-06-05T06:51:29.935Z,202.50
2018-06-05T06:52:29.938Z,191.25
2018-06-05T06:53:29.938Z,191.25
2018-06-05T06:54:29.975Z,202.50
2018-06-05T06:55:29.938Z,208.13
2018-06-05T06:56:29.933Z,208.13
2018-06-05T06:57:29.933Z,213.75
2018-06-05T06:58:29.938Z,219.38
2018-06-05T06:59:29.938Z,219.38
2018-06-05T07:00:29.933Z,219.38
2018-06-05T07:01:29.933Z,225.00
2018-06-05T07:02:29.933Z,219.38
2018-06-05T07:03:29.981Z,213.75
2018-06-05T07:04:29.940Z,202.50
2018-06-05T07:05:29.938Z,202.50
2018-06-05T07:06:29.939Z,208.13
2018-06-05T07:07:29.943Z,219.38
2018-06-05T07:08:29.934Z,230.63
2018-06-05T07:09:29.935Z,230.63
2018-06-05T07:10:29.934Z,230.63
2018-06-05T07:11:29.934Z,236.25
2018-06-05T07:12:29.939Z,241.88
2018-06-05T07:13:29.938Z,241.88
2018-06-05T07:14:29.934Z,253.13
2018-06-05T07:15:29.935Z,253.13
2018-06-05T07:16:29.937Z,253.13
2018-06-05T07:17:29.937Z,253.13
2018-06-05T07:18:29.940Z,253.13
2018-06-05T07:19:29.940Z,253.13
2018-06-05T07:20:29.933Z,247.50
2018-06-05T07:21:29.933Z,241.88
2018-06-05T07:22:29.934Z,241.88
2018-06-05T07:23:29.934Z,247.50
2018-06-05T07:24:29.939Z,253.13
2018-06-05T07:25:29.938Z,258.75
2018-06-05T07:26:29.941Z,264.38
2018-06-05T07:27:29.938Z,264.38
2018-06-05T07:28:29.933Z,270.00
2018-06-05T07:29:29.933Z,275.63
2018-06-05T07:30:30.015Z,275.63
2018-06-05T07:31:29.938Z,281.25
2018-06-05T07:32:29.937Z,286.88
2018-06-05T07:33:29.933Z,292.50
2018-06-05T07:34:29.936Z,298.13
2018-06-05T07:35:29.934Z,309.38
2018-06-05T07:36:29.939Z,309.38
2018-06-05T07:37:29.939Z,315.00
2018-06-05T07:38:29.938Z,326.25
2018-06-05T07:39:29.938Z,331.88
2018-06-05T07:40:29.932Z,331.88
2018-06-05T07:41:29.933Z,326.25
2018-06-05T07:42:29.933Z,320.63
2018-06-05T07:43:29.934Z,320.63
2018-06-05T07:44:29.948Z,315.00
2018-06-05T07:45:29.937Z,315.00
2018-06-05T07:46:29.933Z,309.38
2018-06-05T07:47:29.933Z,309.38
2018-06-05T07:48:29.938Z,303.75
2018-06-05T07:49:29.939Z,298.13
2018-06-05T07:50:29.938Z,298.13
2018-06-05T07:51:29.939Z,303.75
2018-06-05T07:52:29.933Z,309.38
2018-06-05T07:53:29.933Z,309.38
2018-06-05T07:54:29.933Z,315.00
2018-06-05T07:55:29.934Z,320.63
2018-06-05T07:56:29.938Z,331.88
2018-06-05T07:57:29.943Z,326.25
2018-06-05T07:58:29.940Z,331.88
2018-06-05T07:59:29.939Z,326.25
2018-06-05T08:00:29.935Z,315.00
2018-06-05T08:01:29.934Z,309.38
2018-06-05T08:02:29.940Z,315.00
2018-06-05T08:03:29.942Z,309.38
2018-06-05T08:04:29.934Z,303.75
2018-06-05T08:05:29.935Z,303.75
2018-06-05T08:06:29.935Z,309.38
2018-06-05T08:07:29.936Z,331.88
2018-06-05T08:08:29.940Z,331.88
2018-06-05T08:09:29.940Z,326.25
2018-06-05T08:10:29.940Z,337.50
2018-06-05T08:11:29.942Z,343.13
2018-06-05T08:12:29.937Z,365.63
2018-06-05T08:13:29.936Z,382.50
2018-06-05T08:14:29.937Z,399.38
2018-06-05T08:15:29.941Z,410.63
2018-06-05T08:16:29.945Z,410.63
2018-06-05T08:17:29.943Z,388.13
2018-06-05T08:18:30.003Z,365.63
2018-06-05T08:19:29.942Z,337.50
2018-06-05T08:20:29.945Z,337.50
2018-06-05T08:21:29.944Z,360.00
2018-06-05T08:22:29.945Z,376.88
2018-06-05T08:23:29.945Z,388.13
2018-06-05T08:24:29.948Z,393.75
2018-06-05T08:25:29.941Z,376.88
2018-06-05T08:26:29.943Z,360.00
2018-06-05T08:27:29.944Z,343.13
2018-06-05T08:28:29.947Z,343.13
2018-06-05T08:29:29.948Z,354.38
2018-06-05T08:30:29.950Z,382.50
2018-06-05T08:31:29.951Z,376.88
2018-06-05T08:32:29.946Z,382.50
2018-06-05T08:33:29.947Z,376.88
2018-06-05T08:34:29.952Z,365.63
2018-06-05T08:35:29.954Z,360.00
2018-06-05T08:36:29.947Z,360.00
2018-06-05T08:37:29.948Z,360.00
2018-06-05T08:38:29.949Z,365.63
2018-06-05T08:39:29.949Z,360.00
2018-06-05T08:40:29.953Z,360.00
2018-06-05T08:41:29.954Z,354.38
2018-06-05T08:42:29.955Z,354.38
2018-06-05T08:43:29.955Z,365.63
2018-06-05T08:44:29.951Z,371.25
2018-06-05T08:45:29.954Z,365.63
2018-06-05T08:46:29.952Z,348.75
2018-06-05T08:47:29.954Z,331.88
2018-06-05T08:48:29.958Z,320.63
2018-06-05T08:49:29.959Z,320.63
2018-06-05T08:50:29.957Z,331.88
2018-06-05T08:51:29.956Z,337.50
2018-06-05T08:52:29.961Z,354.38
2018-06-05T08:53:29.961Z,371.25
2018-06-05T08:54:29.963Z,365.63
2018-06-05T08:55:29.962Z,360.00
2018-06-05T08:56:29.959Z,360.00
2018-06-05T08:57:29.959Z,360.00
2018-06-05T08:58:29.960Z,354.38
2018-06-05T08:59:29.961Z,348.75
2018-06-05T09:00:29.967Z,348.75
2018-06-05T09:01:29.967Z,354.38
2018-06-05T09:02:29.968Z,348.75
2018-06-05T09:03:29.970Z,348.75
2018-06-05T09:04:29.965Z,365.63
2018-06-05T09:05:29.975Z,371.25
2018-06-05T09:06:29.972Z,371.25
2018-06-05T09:07:29.973Z,371.25
2018-06-05T09:08:29.969Z,376.88
2018-06-05T09:09:29.971Z,388.13
2018-06-05T09:10:29.975Z,399.38
2018-06-05T09:11:29.981Z,399.38
2018-06-05T09:12:29.981Z,399.38
2018-06-05T09:13:29.981Z,410.63
2018-06-05T09:14:29.982Z,405.00
2018-06-05T09:15:29.984Z,399.38
2018-06-05T09:16:29.981Z,388.13
2018-06-05T09:17:29.980Z,365.63
2018-06-05T09:18:29.981Z,348.75
2018-06-05T09:19:29.982Z,348.75
2018-06-05T09:20:30.014Z,354.38
2018-06-05T09:21:29.988Z,348.75
2018-06-05T09:22:29.986Z,343.13
2018-06-05T09:23:29.987Z,343.13
2018-06-05T09:24:29.993Z,343.13
2018-06-05T09:25:29.996Z,343.13
2018-06-05T09:26:29.998Z,331.88
2018-06-05T09:27:29.997Z,337.50
2018-06-05T09:28:29.993Z,343.13
2018-06-05T09:29:29.993Z,348.75
2018-06-05T09:30:29.996Z,348.75
2018-06-05T09:31:29.997Z,348.75
2018-06-05T09:32:30.001Z,360.00
2018-06-05T09:33:30.004Z,376.88
2018-06-05T09:34:30.053Z,382.50
2018-06-05T09:35:30.007Z,388.13
2018-06-05T09:36:30.001Z,393.75
2018-06-05T09:37:30.006Z,405.00
2018-06-05T09:38:30.008Z,405.00
2018-06-05T09:39:30.081Z,405.00
2018-06-05T09:40:30.006Z,393.75
2018-06-05T09:41:30.007Z,382.50
2018-06-05T09:42:30.008Z,376.88
2018-06-05T09:43:30.009Z,365.63
2018-06-05T09:44:30.015Z,365.63
2018-06-05T09:45:30.017Z,365.63
2018-06-05T09:46:30.018Z,365.63
2018-06-05T09:47:30.019Z,365.63
2018-06-05T09:48:30.019Z,354.38
2018-06-05T09:49:30.020Z,360.00
2018-06-05T09:50:30.017Z,365.63
2018-06-05T09:51:30.018Z,376.88
2018-06-05T09:52:30.074Z,376.88
2018-06-05T09:53:30.024Z,382.50
2018-06-05T09:54:30.020Z,382.50
2018-06-05T09:55:30.022Z,388.13
2018-06-05T09:56:30.027Z,393.75
2018-06-05T09:57:30.028Z,393.75
2018-06-05T09:58:30.207Z,399.38
2018-06-05T09:59:30.031Z,393.75
2018-06-05T10:00:30.026Z,382.50
2018-06-05T10:01:30.027Z,371.25
2018-06-05T10:02:30.029Z,376.88
2018-06-05T10:03:30.030Z,382.50
2018-06-05T10:04:30.036Z,376.88
2018-06-05T10:05:30.037Z,365.63
2018-06-05T10:06:30.037Z,354.38
2018-06-05T10:07:30.038Z,354.38
2018-06-05T10:08:30.036Z,354.38
2018-06-05T10:09:30.035Z,365.63
2018-06-05T10:10:30.041Z,371.25
2018-06-05T10:11:30.043Z,382.50
2018-06-05T10:12:30.060Z,399.38
2018-06-05T10:13:30.040Z,421.88
2018-06-05T10:14:30.041Z,433.13
2018-06-05T10:15:30.043Z,438.75
2018-06-05T10:16:30.048Z,438.75
2018-06-05T10:17:30.050Z,450.00
2018-06-05T10:18:30.053Z,455.63
2018-06-05T10:19:30.053Z,466.88
2018-06-05T10:20:30.048Z,472.50
2018-06-05T10:21:30.050Z,472.50
2018-06-05T10:22:30.050Z,478.13
2018-06-05T10:23:30.053Z,478.13
2018-06-05T10:24:30.057Z,478.13
2018-06-05T10:25:30.058Z,472.50
2018-06-05T10:26:30.057Z,478.13
2018-06-05T10:27:30.057Z,472.50
2018-06-05T10:28:30.062Z,466.88
2018-06-05T10:29:30.063Z,472.50
2018-06-05T10:30:30.112Z,466.88
2018-06-05T10:31:30.066Z,466.88
2018-06-05T10:32:30.063Z,461.25
2018-06-05T10:33:30.065Z,472.50
2018-06-05T10:34:30.066Z,478.13
2018-06-05T10:35:30.068Z,478.13
2018-06-05T10:36:30.073Z,478.13
2018-06-05T10:37:30.076Z,489.38
2018-06-05T10:38:30.077Z,500.63
2018-06-05T10:39:30.079Z,506.25
2018-06-05T10:40:30.074Z,500.63
2018-06-05T10:41:30.076Z,506.25
2018-06-05T10:42:30.087Z,528.75
2018-06-05T10:43:30.088Z,551.25
2018-06-05T10:44:30.080Z,562.50
2018-06-05T10:45:30.081Z,562.50
2018-06-05T10:46:30.088Z,540.00
2018-06-05T10:47:30.087Z,523.13
2018-06-05T10:48:30.092Z,534.38
2018-06-05T10:49:30.094Z,545.63
2018-06-05T10:50:30.095Z,551.25
2018-06-05T10:51:30.097Z,551.25
2018-06-05T10:52:30.100Z,562.50
2018-06-05T10:53:30.096Z,562.50
2018-06-05T10:54:30.098Z,568.13
2018-06-05T10:55:30.101Z,562.50
2018-06-05T10:56:30.105Z,556.88
2018-06-05T10:57:30.108Z,562.50
2018-06-05T10:58:30.106Z,556.88
2018-06-05T10:59:30.108Z,562.50
2018-06-05T11:00:30.181Z,562.50
2018-06-05T11:01:30.141Z,562.50
2018-06-05T11:02:30.121Z,579.38
2018-06-05T11:03:30.123Z,590.63
2018-06-05T11:04:30.119Z,607.50
2018-06-05T11:05:30.122Z,607.50
2018-06-05T11:06:30.127Z,596.25
2018-06-05T11:07:30.126Z,579.38
2018-06-05T11:08:30.133Z,556.88
2018-06-05T11:09:30.134Z,551.25
2018-06-05T11:10:30.138Z,545.63
2018-06-05T11:11:30.141Z,590.63
2018-06-05T11:12:30.137Z,641.25
2018-06-05T11:13:30.140Z,641.25
2018-06-05T11:14:30.147Z,635.63
2018-06-05T11:15:30.149Z,635.63
2018-06-05T11:16:30.147Z,630.00
2018-06-05T11:17:30.149Z,601.88
2018-06-05T11:18:30.152Z,601.88
2018-06-05T11:19:30.155Z,613.13
2018-06-05T11:20:30.160Z,613.13
2018-06-05T11:21:30.162Z,607.50
2018-06-05T11:22:30.166Z,596.25
2018-06-05T11:23:30.171Z,607.50
2018-06-05T11:24:30.167Z,624.38
2018-06-05T11:25:30.169Z,630.00
2018-06-05T11:26:30.174Z,652.50
2018-06-05T11:27:30.181Z,658.13
2018-06-05T11:28:30.182Z,641.25
2018-06-05T11:29:30.184Z,635.63
2018-06-05T11:30:30.186Z,663.75
2018-06-05T11:31:30.186Z,703.13
2018-06-05T11:32:30.192Z,731.25
2018-06-05T11:33:30.195Z,748.13
2018-06-05T11:34:30.197Z,770.63
2018-06-05T11:35:30.201Z,753.75
2018-06-05T11:36:30.200Z,736.88
2018-06-05T11:37:30.201Z,742.50
2018-06-05T11:38:30.204Z,731.25
2018-06-05T11:39:30.207Z,725.63
2018-06-05T11:40:30.215Z,703.13
2018-06-05T11:41:30.222Z,714.38
2018-06-05T11:42:30.221Z,731.25
2018-06-05T11:43:30.224Z,748.13
2018-06-05T11:44:30.221Z,759.38
2018-06-05T11:45:30.224Z,776.25
2018-06-05T11:46:30.233Z,798.75
2018-06-05T11:47:30.238Z,793.13
2018-06-05T11:48:30.233Z,787.50
2018-06-05T11:49:30.236Z,793.13
2018-06-05T11:50:30.239Z,832.50
2018-06-05T11:51:30.243Z,888.75
2018-06-05T11:52:30.250Z,905.63
2018-06-05T11:53:30.252Z,894.38
2018-06-05T11:54:30.256Z,838.13
2018-06-05T11:55:30.259Z,832.50
2018-06-05T11:56:30.258Z,866.25
2018-06-05T11:57:30.261Z,855.00
2018-06-05T11:58:30.266Z,838.13
2018-06-05T11:59:30.269Z,832.50
2018-06-05T12:00:30.275Z,832.50
2018-06-05T12:01:30.279Z,838.13
2018-06-05T12:02:30.280Z,821.25
2018-06-05T12:03:30.296Z,826.88
2018-06-05T12:04:30.290Z,821.25
2018-06-05T12:05:30.296Z,815.63
2018-06-05T12:06:30.298Z,815.63
2018-06-05T12:07:30.299Z,826.88
2018-06-05T12:08:30.297Z,776.25
2018-06-05T12:09:30.301Z,781.88
2018-06-05T12:10:30.305Z,832.50
2018-06-05T12:11:30.308Z,928.13
2018-06-05T12:12:30.317Z,945.00
2018-06-05T12:13:30.319Z,928.13
2018-06-05T12:14:30.322Z,911.25
2018-06-05T12:15:30.326Z,877.50
2018-06-05T12:16:30.325Z,866.25
2018-06-05T12:17:30.328Z,832.50
2018-06-05T12:18:30.335Z,826.88
2018-06-05T12:19:30.340Z,832.50
2018-06-05T12:20:30.338Z,860.63
2018-06-05T12:21:30.342Z,894.38
2018-06-05T12:22:30.346Z,905.63
2018-06-05T12:23:30.349Z,922.50
2018-06-05T12:24:30.356Z,984.38
2018-06-05T12:25:30.394Z,978.75
2018-06-05T12:26:30.363Z,995.63
2018-06-05T12:27:30.367Z,984.38
2018-06-05T12:28:30.365Z,933.75
2018-06-05T12:29:30.369Z,911.25
2018-06-05T12:30:30.372Z,905.63
2018-06-05T12:31:30.376Z,900.00
2018-06-05T12:32:30.383Z,900.00
2018-06-05T12:33:30.388Z,871.88
2018-06-05T12:34:30.387Z,866.25
2018-06-05T12:35:30.390Z,894.38
2018-06-05T12:36:30.397Z,894.38
2018-06-05T12:37:30.402Z,900.00
2018-06-05T12:38:30.408Z,905.63
2018-06-05T12:39:30.411Z,928.13
2018-06-05T12:40:30.455Z,990.00
2018-06-05T12:41:30.413Z,1006.88
2018-06-05T12:42:30.418Z,1029.38
2018-06-05T12:43:30.422Z,990.00